Forside
METAR-TAF:

METAR-TAF

Lufthavne :

London Biggin Hill Airport

London Biggin Hill, England

Breddekreds: 51-19N, længdekreds: 000-02E, højde: 183 m

Aktuelle vejr

Denne rapport blev lavet for 26 minutter siden, kl. 18:50 UTC
Vind 4 kt fra vest, varierende mellem sydvest og vestnordvest
Temperatur 5°C
Fugtighed 100%
Tryk 1012 hPa
Sigt: 7000 m
Brudte skyer i en højde af 400 ft
finregn

METAR: EGKB 021850Z 26004KT 230V290 7000 DZ BKN004 05/05 Q1012

Tid: 19:16 (19:16 UTC)

Vejrudsigter

Denne rapport blev lavet for 41 minutter siden, kl. 18:35 UTC
Foreløbig gælder fra 02 på 18 UTC til 02 på 23 UTC
Vind 6 kt fra vestsydvest
Sigt 10 km eller mere
Spredte skyer i en højde af 2500 ft
Midlertidig
fra 02 på 18 UTC til 02 på 21 UTC
Sigt: 6000 m
Brudte skyer i en højde af 1000 ft
let regn, finregn
Sandsynlighed 40% :
Midlertidig
fra 02 på 18 UTC til 02 på 21 UTC
Sigt: 3000 m
Brudte skyer i en højde af 400 ft
finregn

TAF: EGKB 021835Z 0218/0223 24006KT 9999 SCT025 TEMPO 0218/0221 6000 -RADZ BKN010 PROB40 TEMPO 0218/0221 3000 DZ BKN004

Vejrobservationer og prognoser fra mere end 4000 lufthavne (METAR og TAF).

De gule og røde prikker repræsenterer de meteorologiske stationer.

Flyt musen over at se navnet på stationen.

Så klik over at se vejr observationer og prognoser.

At skifte det kort: Klik på de grønne knapper med et sort kors for at zoome ind; på den grønne knap med en bindestreg for at zoome ud; eller på de grønne pile for tilstødende kort.


METAR-TAF: